Terminal Aerodrome Forecast
Issued by NWS Louisville, KY

Home | Current Version | Previous Version | Text Only | Print | Product List | Glossary On
Versions: 1 2 3 4 5 6 7 8 9 10 11 12 13
098
FTUS43 KLMK 251120
TAFLEX
TAF
KLEX 251120Z 2512/2612 28014G20KT P6SM SCT025 BKN035
      TEMPO 2512/2516 BKN025
     FM260000 27008KT P6SM SCT035=

USA.gov is the U.S. government's official web portal to all federal, state and local government web resources and services.